sensor_id;sensor_type;location;lat;lon;timestamp;P1;durP1;ratioP1;P2;durP2;ratioP2
30966;SDS011;17649;51.836;8.330;2022-08-01T00:01:56;31.60;;;17.05;;
30966;SDS011;17649;51.836;8.330;2022-08-01T00:04:58;28.55;;;16.23;;
30966;SDS011;17649;51.836;8.330;2022-08-01T00:08:00;27.48;;;15.68;;
30966;SDS011;17649;51.836;8.330;2022-08-01T00:11:15;30.30;;;17.33;;
30966;SDS011;17649;51.836;8.330;2022-08-01T00:14:17;29.40;;;16.70;;
30966;SDS011;17649;51.836;8.330;2022-08-01T00:17:27;29.23;;;16.88;;
30966;SDS011;17649;51.836;8.330;2022-08-01T00:20:27;33.40;;;19.13;;
30966;SDS011;17649;51.836;8.330;2022-08-01T00:32:59;27.73;;;16.33;;
30966;SDS011;17649;51.836;8.330;2022-08-01T00:36:00;29.67;;;16.92;;
30966;SDS011;17649;51.836;8.330;2022-08-01T00:39:00;29.20;;;17.38;;
30966;SDS011;17649;51.836;8.330;2022-08-01T00:42:11;38.08;;;17.85;;
30966;SDS011;17649;51.836;8.330;2022-08-01T00:45:14;32.35;;;18.02;;
30966;SDS011;17649;51.836;8.330;2022-08-01T00:48:29;32.20;;;17.35;;
30966;SDS011;17649;51.836;8.330;2022-08-01T00:51:31;27.45;;;16.63;;
30966;SDS011;17649;51.836;8.330;2022-08-01T00:54:31;26.27;;;17.10;;
30966;SDS011;17649;51.836;8.330;2022-08-01T00:57:33;31.00;;;16.02;;
30966;SDS011;17649;51.836;8.330;2022-08-01T01:00:35;27.75;;;17.52;;
30966;SDS011;17649;51.836;8.330;2022-08-01T01:03:37;31.13;;;16.55;;
30966;SDS011;17649;51.836;8.330;2022-08-01T01:10:08;20.57;;;14.23;;
30966;SDS011;17649;51.836;8.330;2022-08-01T01:13:18;23.02;;;12.57;;
30966;SDS011;17649;51.836;8.330;2022-08-01T01:16:30;21.52;;;12.00;;
30966;SDS011;17649;51.836;8.330;2022-08-01T01:19:39;26.77;;;12.50;;
30966;SDS011;17649;51.836;8.330;2022-08-01T01:26:29;19.60;;;10.95;;
30966;SDS011;17649;51.836;8.330;2022-08-01T01:29:56;15.70;;;8.88;;
30966;SDS011;17649;51.836;8.330;2022-08-01T01:39:09;15.60;;;8.63;;
30966;SDS011;17649;51.836;8.330;2022-08-01T01:42:10;14.57;;;9.30;;
30966;SDS011;17649;51.836;8.330;2022-08-01T01:45:15;16.73;;;10.63;;
30966;SDS011;17649;51.836;8.330;2022-08-01T01:48:19;16.20;;;10.43;;
30966;SDS011;17649;51.836;8.330;2022-08-01T01:51:25;18.63;;;10.20;;
30966;SDS011;17649;51.836;8.330;2022-08-01T01:54:29;18.83;;;10.82;;
30966;SDS011;17649;51.836;8.330;2022-08-01T01:57:32;19.35;;;10.60;;
30966;SDS011;17649;51.836;8.330;2022-08-01T02:00:39;20.23;;;10.75;;
30966;SDS011;17649;51.836;8.330;2022-08-01T02:03:43;19.45;;;11.88;;
30966;SDS011;17649;51.836;8.330;2022-08-01T02:06:45;18.77;;;11.67;;
30966;SDS011;17649;51.836;8.330;2022-08-01T02:09:47;20.40;;;11.45;;
30966;SDS011;17649;51.836;8.330;2022-08-01T02:12:49;19.73;;;12.68;;
30966;SDS011;17649;51.836;8.330;2022-08-01T02:15:50;24.55;;;11.95;;
30966;SDS011;17649;51.836;8.330;2022-08-01T02:19:00;21.55;;;11.25;;
30966;SDS011;17649;51.836;8.330;2022-08-01T02:22:18;21.40;;;10.77;;
30966;SDS011;17649;51.836;8.330;2022-08-01T02:25:42;19.33;;;10.23;;
30966;SDS011;17649;51.836;8.330;2022-08-01T02:28:50;20.33;;;9.85;;
30966;SDS011;17649;51.836;8.330;2022-08-01T02:31:57;16.98;;;9.93;;
30966;SDS011;17649;51.836;8.330;2022-08-01T02:35:00;17.85;;;10.50;;
30966;SDS011;17649;51.836;8.330;2022-08-01T02:38:03;14.70;;;9.93;;
30966;SDS011;17649;51.836;8.330;2022-08-01T02:41:10;19.58;;;9.68;;
30966;SDS011;17649;51.836;8.330;2022-08-01T02:44:16;16.40;;;10.10;;
30966;SDS011;17649;51.836;8.330;2022-08-01T02:47:25;22.20;;;10.93;;
30966;SDS011;17649;51.836;8.330;2022-08-01T02:50:28;18.30;;;9.60;;
30966;SDS011;17649;51.836;8.330;2022-08-01T02:53:31;18.33;;;10.88;;
30966;SDS011;17649;51.836;8.330;2022-08-01T02:56:37;14.93;;;9.93;;
30966;SDS011;17649;51.836;8.330;2022-08-01T02:59:42;22.00;;;11.13;;
30966;SDS011;17649;51.836;8.330;2022-08-01T03:02:47;25.13;;;11.35;;
30966;SDS011;17649;51.836;8.330;2022-08-01T03:05:50;21.60;;;9.95;;
30966;SDS011;17649;51.836;8.330;2022-08-01T03:08:52;15.00;;;9.03;;
30966;SDS011;17649;51.836;8.330;2022-08-01T03:11:57;16.67;;;9.02;;
30966;SDS011;17649;51.836;8.330;2022-08-01T03:15:04;14.30;;;8.80;;
30966;SDS011;17649;51.836;8.330;2022-08-01T03:21:09;20.92;;;11.25;;
30966;SDS011;17649;51.836;8.330;2022-08-01T03:24:13;19.25;;;10.05;;
30966;SDS011;17649;51.836;8.330;2022-08-01T03:27:17;16.83;;;10.05;;
30966;SDS011;17649;51.836;8.330;2022-08-01T03:30:22;17.17;;;10.10;;
30966;SDS011;17649;51.836;8.330;2022-08-01T03:33:25;20.83;;;10.52;;
30966;SDS011;17649;51.836;8.330;2022-08-01T03:36:26;20.83;;;9.82;;
30966;SDS011;17649;51.836;8.330;2022-08-01T03:39:30;22.95;;;11.13;;
30966;SDS011;17649;51.836;8.330;2022-08-01T03:42:39;19.60;;;10.30;;
30966;SDS011;17649;51.836;8.330;2022-08-01T03:45:48;16.27;;;9.90;;
30966;SDS011;17649;51.836;8.330;2022-08-01T03:48:52;17.67;;;10.07;;
30966;SDS011;17649;51.836;8.330;2022-08-01T03:51:59;23.25;;;11.27;;
30966;SDS011;17649;51.836;8.330;2022-08-01T03:55:03;20.45;;;10.57;;
30966;SDS011;17649;51.836;8.330;2022-08-01T03:58:09;17.63;;;10.82;;
30966;SDS011;17649;51.836;8.330;2022-08-01T04:01:12;21.75;;;11.82;;
30966;SDS011;17649;51.836;8.330;2022-08-01T04:04:13;19.88;;;10.45;;
30966;SDS011;17649;51.836;8.330;2022-08-01T04:07:22;22.10;;;10.57;;
30966;SDS011;17649;51.836;8.330;2022-08-01T04:10:26;19.38;;;10.07;;
30966;SDS011;17649;51.836;8.330;2022-08-01T04:13:27;23.65;;;11.20;;
30966;SDS011;17649;51.836;8.330;2022-08-01T04:16:27;15.90;;;9.70;;
30966;SDS011;17649;51.836;8.330;2022-08-01T04:19:28;19.75;;;9.88;;
30966;SDS011;17649;51.836;8.330;2022-08-01T04:22:29;22.83;;;9.52;;
30966;SDS011;17649;51.836;8.330;2022-08-01T04:25:33;21.52;;;11.20;;
30966;SDS011;17649;51.836;8.330;2022-08-01T04:28:36;15.77;;;9.10;;
30966;SDS011;17649;51.836;8.330;2022-08-01T04:34:44;17.45;;;9.43;;
30966;SDS011;17649;51.836;8.330;2022-08-01T04:37:49;17.80;;;10.43;;
30966;SDS011;17649;51.836;8.330;2022-08-01T04:43:55;17.55;;;10.18;;
30966;SDS011;17649;51.836;8.330;2022-08-01T04:59:49;27.90;;;10.52;;
30966;SDS011;17649;51.836;8.330;2022-08-01T05:02:53;19.80;;;9.80;;
30966;SDS011;17649;51.836;8.330;2022-08-01T05:05:57;16.17;;;9.73;;
30966;SDS011;17649;51.836;8.330;2022-08-01T05:08:57;15.75;;;8.65;;
30966;SDS011;17649;51.836;8.330;2022-08-01T05:11:59;19.55;;;8.73;;
30966;SDS011;17649;51.836;8.330;2022-08-01T05:15:03;16.42;;;9.10;;
30966;SDS011;17649;51.836;8.330;2022-08-01T05:18:06;13.75;;;8.63;;
30966;SDS011;17649;51.836;8.330;2022-08-01T05:21:07;17.58;;;8.70;;
30966;SDS011;17649;51.836;8.330;2022-08-01T05:27:23;18.58;;;8.15;;
30966;SDS011;17649;51.836;8.330;2022-08-01T05:30:26;13.68;;;8.00;;
30966;SDS011;17649;51.836;8.330;2022-08-01T05:33:34;14.65;;;7.72;;
30966;SDS011;17649;51.836;8.330;2022-08-01T05:36:34;17.17;;;7.43;;
30966;SDS011;17649;51.836;8.330;2022-08-01T05:39:37;13.73;;;6.88;;
30966;SDS011;17649;51.836;8.330;2022-08-01T05:42:38;19.58;;;8.55;;
30966;SDS011;17649;51.836;8.330;2022-08-01T05:51:53;10.98;;;6.30;;
30966;SDS011;17649;51.836;8.330;2022-08-01T05:54:57;11.90;;;5.97;;
30966;SDS011;17649;51.836;8.330;2022-08-01T06:17:11;7.50;;;4.72;;
30966;SDS011;17649;51.836;8.330;2022-08-01T06:20:11;9.65;;;5.45;;
30966;SDS011;17649;51.836;8.330;2022-08-01T06:23:12;9.00;;;4.70;;
30966;SDS011;17649;51.836;8.330;2022-08-01T06:26:13;7.65;;;4.25;;
30966;SDS011;17649;51.836;8.330;2022-08-01T06:51:25;6.57;;;4.43;;
30966;SDS011;17649;51.836;8.330;2022-08-01T06:54:25;6.03;;;4.07;;
30966;SDS011;17649;51.836;8.330;2022-08-01T06:57:26;7.45;;;5.00;;
30966;SDS011;17649;51.836;8.330;2022-08-01T07:00:27;8.13;;;4.78;;
30966;SDS011;17649;51.836;8.330;2022-08-01T07:03:31;6.90;;;4.65;;
30966;SDS011;17649;51.836;8.330;2022-08-01T07:06:35;5.10;;;3.63;;
30966;SDS011;17649;51.836;8.330;2022-08-01T07:09:45;4.40;;;3.40;;
30966;SDS011;17649;51.836;8.330;2022-08-01T07:12:47;5.22;;;3.47;;
30966;SDS011;17649;51.836;8.330;2022-08-01T07:15:49;4.63;;;3.88;;
30966;SDS011;17649;51.836;8.330;2022-08-01T07:18:50;7.30;;;3.40;;
30966;SDS011;17649;51.836;8.330;2022-08-01T07:21:52;4.13;;;3.38;;
30966;SDS011;17649;51.836;8.330;2022-08-01T07:24:53;4.90;;;3.77;;
30966;SDS011;17649;51.836;8.330;2022-08-01T07:28:03;5.32;;;4.18;;
30966;SDS011;17649;51.836;8.330;2022-08-01T07:31:05;4.20;;;3.20;;
30966;SDS011;17649;51.836;8.330;2022-08-01T07:34:07;5.97;;;3.67;;
30966;SDS011;17649;51.836;8.330;2022-08-01T07:37:09;4.47;;;3.90;;
30966;SDS011;17649;51.836;8.330;2022-08-01T07:40:22;12.50;;;4.90;;
30966;SDS011;17649;51.836;8.330;2022-08-01T07:44:01;6.72;;;4.95;;
30966;SDS011;17649;51.836;8.330;2022-08-01T07:47:02;7.63;;;5.00;;
30966;SDS011;17649;51.836;8.330;2022-08-01T07:50:04;10.43;;;5.43;;
30966;SDS011;17649;51.836;8.330;2022-08-01T07:53:06;8.82;;;5.50;;
30966;SDS011;17649;51.836;8.330;2022-08-01T07:56:06;8.40;;;5.75;;
30966;SDS011;17649;51.836;8.330;2022-08-01T07:59:10;6.82;;;5.40;;
30966;SDS011;17649;51.836;8.330;2022-08-01T08:02:25;9.13;;;6.50;;
30966;SDS011;17649;51.836;8.330;2022-08-01T08:06:04;7.78;;;6.10;;
30966;SDS011;17649;51.836;8.330;2022-08-01T08:13:03;6.45;;;5.10;;
30966;SDS011;17649;51.836;8.330;2022-08-01T08:16:29;8.52;;;5.05;;
30966;SDS011;17649;51.836;8.330;2022-08-01T08:19:38;10.65;;;6.05;;
30966;SDS011;17649;51.836;8.330;2022-08-01T08:22:53;6.95;;;5.53;;
30966;SDS011;17649;51.836;8.330;2022-08-01T08:26:37;6.57;;;5.00;;
30966;SDS011;17649;51.836;8.330;2022-08-01T08:29:50;7.10;;;4.68;;
30966;SDS011;17649;51.836;8.330;2022-08-01T08:39:40;6.13;;;5.05;;
30966;SDS011;17649;51.836;8.330;2022-08-01T08:42:41;9.27;;;4.70;;
30966;SDS011;17649;51.836;8.330;2022-08-01T08:45:44;5.68;;;4.03;;
30966;SDS011;17649;51.836;8.330;2022-08-01T08:48:46;6.68;;;4.40;;
30966;SDS011;17649;51.836;8.330;2022-08-01T08:51:48;5.13;;;3.90;;
30966;SDS011;17649;51.836;8.330;2022-08-01T08:54:51;7.03;;;4.35;;
30966;SDS011;17649;51.836;8.330;2022-08-01T08:57:52;7.35;;;4.35;;
30966;SDS011;17649;51.836;8.330;2022-08-01T09:01:01;7.10;;;4.35;;
30966;SDS011;17649;51.836;8.330;2022-08-01T09:04:05;5.03;;;3.88;;
30966;SDS011;17649;51.836;8.330;2022-08-01T09:07:06;6.50;;;4.10;;
30966;SDS011;17649;51.836;8.330;2022-08-01T09:10:11;6.32;;;5.18;;
30966;SDS011;17649;51.836;8.330;2022-08-01T09:13:14;6.32;;;4.63;;
30966;SDS011;17649;51.836;8.330;2022-08-01T09:16:16;6.03;;;3.97;;
30966;SDS011;17649;51.836;8.330;2022-08-01T09:19:20;7.03;;;4.00;;
30966;SDS011;17649;51.836;8.330;2022-08-01T09:22:28;4.38;;;3.50;;
30966;SDS011;17649;51.836;8.330;2022-08-01T09:25:49;6.10;;;3.33;;
30966;SDS011;17649;51.836;8.330;2022-08-01T09:28:52;4.10;;;3.58;;
30966;SDS011;17649;51.836;8.330;2022-08-01T09:31:55;7.75;;;3.50;;
30966;SDS011;17649;51.836;8.330;2022-08-01T09:35:03;5.05;;;4.03;;
30966;SDS011;17649;51.836;8.330;2022-08-01T09:38:27;6.13;;;4.10;;
30966;SDS011;17649;51.836;8.330;2022-08-01T09:41:30;5.63;;;3.13;;
30966;SDS011;17649;51.836;8.330;2022-08-01T09:44:41;2.85;;;2.55;;
30966;SDS011;17649;51.836;8.330;2022-08-01T09:47:45;3.28;;;2.72;;
30966;SDS011;17649;51.836;8.330;2022-08-01T09:50:51;6.28;;;4.43;;
30966;SDS011;17649;51.836;8.330;2022-08-01T09:53:55;5.75;;;4.45;;
30966;SDS011;17649;51.836;8.330;2022-08-01T10:00:28;6.07;;;4.43;;
30966;SDS011;17649;51.836;8.330;2022-08-01T10:03:30;6.43;;;5.07;;
30966;SDS011;17649;51.836;8.330;2022-08-01T10:06:33;6.38;;;5.15;;
30966;SDS011;17649;51.836;8.330;2022-08-01T10:09:47;4.93;;;4.22;;
30966;SDS011;17649;51.836;8.330;2022-08-01T10:12:52;5.40;;;4.53;;
30966;SDS011;17649;51.836;8.330;2022-08-01T10:15:59;5.60;;;4.20;;
30966;SDS011;17649;51.836;8.330;2022-08-01T10:19:03;6.30;;;3.30;;
30966;SDS011;17649;51.836;8.330;2022-08-01T10:22:11;3.55;;;2.53;;
30966;SDS011;17649;51.836;8.330;2022-08-01T10:25:16;3.00;;;2.70;;
30966;SDS011;17649;51.836;8.330;2022-08-01T10:28:21;3.15;;;2.33;;
30966;SDS011;17649;51.836;8.330;2022-08-01T10:31:26;3.33;;;2.55;;
30966;SDS011;17649;51.836;8.330;2022-08-01T10:34:31;3.70;;;2.15;;
30966;SDS011;17649;51.836;8.330;2022-08-01T10:37:38;2.85;;;2.40;;
30966;SDS011;17649;51.836;8.330;2022-08-01T10:40:47;3.20;;;2.90;;
30966;SDS011;17649;51.836;8.330;2022-08-01T10:43:48;3.43;;;2.90;;
30966;SDS011;17649;51.836;8.330;2022-08-01T10:46:52;3.55;;;3.20;;
30966;SDS011;17649;51.836;8.330;2022-08-01T10:53:17;2.60;;;2.30;;
30966;SDS011;17649;51.836;8.330;2022-08-01T10:56:21;4.15;;;3.00;;
30966;SDS011;17649;51.836;8.330;2022-08-01T10:59:49;3.80;;;2.70;;
30966;SDS011;17649;51.836;8.330;2022-08-01T11:02:57;5.80;;;3.22;;
30966;SDS011;17649;51.836;8.330;2022-08-01T11:06:01;12.98;;;4.95;;
30966;SDS011;17649;51.836;8.330;2022-08-01T11:16:29;9.10;;;5.93;;
30966;SDS011;17649;51.836;8.330;2022-08-01T11:20:19;6.45;;;4.97;;
30966;SDS011;17649;51.836;8.330;2022-08-01T11:23:15;9.07;;;6.25;;
30966;SDS011;17649;51.836;8.330;2022-08-01T11:26:21;7.90;;;5.63;;
30966;SDS011;17649;51.836;8.330;2022-08-01T11:29:22;6.90;;;5.40;;
30966;SDS011;17649;51.836;8.330;2022-08-01T11:32:27;6.32;;;4.68;;
30966;SDS011;17649;51.836;8.330;2022-08-01T11:35:28;9.02;;;5.65;;
30966;SDS011;17649;51.836;8.330;2022-08-01T11:38:29;8.48;;;5.82;;
30966;SDS011;17649;51.836;8.330;2022-08-01T11:41:31;8.03;;;5.30;;
30966;SDS011;17649;51.836;8.330;2022-08-01T11:44:47;8.80;;;5.50;;
30966;SDS011;17649;51.836;8.330;2022-08-01T11:47:50;6.47;;;5.35;;
30966;SDS011;17649;51.836;8.330;2022-08-01T11:50:56;9.98;;;5.45;;
30966;SDS011;17649;51.836;8.330;2022-08-01T11:54:00;8.80;;;5.65;;
30966;SDS011;17649;51.836;8.330;2022-08-01T11:57:09;8.23;;;5.28;;
30966;SDS011;17649;51.836;8.330;2022-08-01T12:00:16;8.25;;;4.47;;
30966;SDS011;17649;51.836;8.330;2022-08-01T12:03:28;8.30;;;4.25;;
30966;SDS011;17649;51.836;8.330;2022-08-01T12:06:32;6.82;;;3.47;;
30966;SDS011;17649;51.836;8.330;2022-08-01T12:09:35;2.30;;;2.10;;
30966;SDS011;17649;51.836;8.330;2022-08-01T12:12:43;2.92;;;2.22;;
30966;SDS011;17649;51.836;8.330;2022-08-01T12:15:51;2.80;;;2.15;;
30966;SDS011;17649;51.836;8.330;2022-08-01T12:18:54;3.42;;;2.50;;
30966;SDS011;17649;51.836;8.330;2022-08-01T12:22:06;5.78;;;2.55;;
30966;SDS011;17649;51.836;8.330;2022-08-01T12:25:11;4.20;;;3.67;;
30966;SDS011;17649;51.836;8.330;2022-08-01T12:28:18;4.25;;;3.65;;
30966;SDS011;17649;51.836;8.330;2022-08-01T12:31:32;5.45;;;3.22;;
30966;SDS011;17649;51.836;8.330;2022-08-01T12:34:35;4.63;;;4.00;;
30966;SDS011;17649;51.836;8.330;2022-08-01T12:37:38;4.30;;;3.70;;
30966;SDS011;17649;51.836;8.330;2022-08-01T12:40:42;6.85;;;3.50;;
30966;SDS011;17649;51.836;8.330;2022-08-01T12:43:47;6.30;;;3.65;;
30966;SDS011;17649;51.836;8.330;2022-08-01T12:46:58;6.20;;;3.92;;
30966;SDS011;17649;51.836;8.330;2022-08-01T12:50:00;4.82;;;3.67;;
30966;SDS011;17649;51.836;8.330;2022-08-01T12:53:02;3.20;;;2.63;;
30966;SDS011;17649;51.836;8.330;2022-08-01T12:56:03;5.28;;;2.85;;
30966;SDS011;17649;51.836;8.330;2022-08-01T12:59:27;4.10;;;3.17;;
30966;SDS011;17649;51.836;8.330;2022-08-01T13:02:32;4.88;;;2.78;;
30966;SDS011;17649;51.836;8.330;2022-08-01T13:08:48;2.75;;;2.05;;
30966;SDS011;17649;51.836;8.330;2022-08-01T13:11:53;2.80;;;2.15;;
30966;SDS011;17649;51.836;8.330;2022-08-01T13:18:29;2.58;;;2.25;;
30966;SDS011;17649;51.836;8.330;2022-08-01T13:21:34;2.53;;;2.20;;
30966;SDS011;17649;51.836;8.330;2022-08-01T13:24:36;3.90;;;2.63;;
30966;SDS011;17649;51.836;8.330;2022-08-01T13:27:38;3.78;;;2.38;;
30966;SDS011;17649;51.836;8.330;2022-08-01T13:30:39;14.70;;;3.70;;
30966;SDS011;17649;51.836;8.330;2022-08-01T13:34:02;4.63;;;3.45;;
30966;SDS011;17649;51.836;8.330;2022-08-01T13:40:11;3.55;;;2.80;;
30966;SDS011;17649;51.836;8.330;2022-08-01T13:43:25;4.43;;;3.47;;
30966;SDS011;17649;51.836;8.330;2022-08-01T13:46:27;4.60;;;3.30;;
30966;SDS011;17649;51.836;8.330;2022-08-01T13:49:32;8.45;;;2.70;;
30966;SDS011;17649;51.836;8.330;2022-08-01T13:55:37;2.95;;;2.20;;
30966;SDS011;17649;51.836;8.330;2022-08-01T13:58:46;2.17;;;1.40;;
30966;SDS011;17649;51.836;8.330;2022-08-01T14:01:47;1.60;;;1.50;;
30966;SDS011;17649;51.836;8.330;2022-08-01T14:04:59;4.65;;;2.10;;
30966;SDS011;17649;51.836;8.330;2022-08-01T14:08:01;3.38;;;1.70;;
30966;SDS011;17649;51.836;8.330;2022-08-01T14:11:05;2.78;;;1.58;;
30966;SDS011;17649;51.836;8.330;2022-08-01T14:14:06;1.73;;;1.45;;
30966;SDS011;17649;51.836;8.330;2022-08-01T14:17:08;1.88;;;0.93;;
30966;SDS011;17649;51.836;8.330;2022-08-01T14:20:09;3.17;;;1.33;;
30966;SDS011;17649;51.836;8.330;2022-08-01T14:23:12;1.55;;;1.27;;
30966;SDS011;17649;51.836;8.330;2022-08-01T14:26:19;3.95;;;1.30;;
30966;SDS011;17649;51.836;8.330;2022-08-01T14:29:20;1.92;;;1.13;;
30966;SDS011;17649;51.836;8.330;2022-08-01T14:32:22;5.03;;;1.50;;
30966;SDS011;17649;51.836;8.330;2022-08-01T14:35:30;1.35;;;1.17;;
30966;SDS011;17649;51.836;8.330;2022-08-01T14:38:32;5.07;;;1.90;;
30966;SDS011;17649;51.836;8.330;2022-08-01T14:41:33;2.42;;;1.38;;
30966;SDS011;17649;51.836;8.330;2022-08-01T14:44:40;2.13;;;1.40;;
30966;SDS011;17649;51.836;8.330;2022-08-01T14:47:44;1.92;;;1.35;;
30966;SDS011;17649;51.836;8.330;2022-08-01T14:51:14;2.83;;;1.30;;
30966;SDS011;17649;51.836;8.330;2022-08-01T14:54:18;3.53;;;1.63;;
30966;SDS011;17649;51.836;8.330;2022-08-01T14:57:23;1.75;;;1.50;;
30966;SDS011;17649;51.836;8.330;2022-08-01T15:00:24;5.27;;;1.53;;
30966;SDS011;17649;51.836;8.330;2022-08-01T15:03:30;3.83;;;1.80;;
30966;SDS011;17649;51.836;8.330;2022-08-01T15:06:31;4.93;;;1.60;;
30966;SDS011;17649;51.836;8.330;2022-08-01T15:09:35;3.53;;;2.37;;
30966;SDS011;17649;51.836;8.330;2022-08-01T15:12:36;5.20;;;2.30;;
30966;SDS011;17649;51.836;8.330;2022-08-01T15:15:38;3.78;;;2.22;;
30966;SDS011;17649;51.836;8.330;2022-08-01T15:21:42;5.47;;;2.50;;
30966;SDS011;17649;51.836;8.330;2022-08-01T15:24:45;8.82;;;2.72;;
30966;SDS011;17649;51.836;8.330;2022-08-01T15:27:55;6.17;;;2.63;;
30966;SDS011;17649;51.836;8.330;2022-08-01T15:30:56;6.13;;;2.05;;
30966;SDS011;17649;51.836;8.330;2022-08-01T15:36:59;2.63;;;2.40;;
30966;SDS011;17649;51.836;8.330;2022-08-01T15:40:00;7.60;;;2.22;;
30966;SDS011;17649;51.836;8.330;2022-08-01T15:43:02;2.67;;;1.98;;
30966;SDS011;17649;51.836;8.330;2022-08-01T15:46:03;4.38;;;1.95;;
30966;SDS011;17649;51.836;8.330;2022-08-01T15:49:08;6.68;;;2.45;;
30966;SDS011;17649;51.836;8.330;2022-08-01T15:52:13;3.15;;;1.98;;
30966;SDS011;17649;51.836;8.330;2022-08-01T15:55:17;3.55;;;2.22;;
30966;SDS011;17649;51.836;8.330;2022-08-01T15:58:22;5.78;;;2.22;;
30966;SDS011;17649;51.836;8.330;2022-08-01T16:01:24;3.67;;;1.77;;
30966;SDS011;17649;51.836;8.330;2022-08-01T16:04:28;2.42;;;1.85;;
30966;SDS011;17649;51.836;8.330;2022-08-01T16:07:35;2.85;;;2.00;;
30966;SDS011;17649;51.836;8.330;2022-08-01T16:10:38;5.93;;;2.33;;
30966;SDS011;17649;51.836;8.330;2022-08-01T16:13:39;6.32;;;1.60;;
30966;SDS011;17649;51.836;8.330;2022-08-01T16:16:40;1.53;;;1.23;;
30966;SDS011;17649;51.836;8.330;2022-08-01T16:19:47;3.53;;;1.75;;
30966;SDS011;17649;51.836;8.330;2022-08-01T16:22:57;3.28;;;2.05;;
30966;SDS011;17649;51.836;8.330;2022-08-01T16:33:51;5.53;;;1.73;;
30966;SDS011;17649;51.836;8.330;2022-08-01T16:37:27;1.95;;;1.60;;
30966;SDS011;17649;51.836;8.330;2022-08-01T16:40:30;1.95;;;1.50;;
30966;SDS011;17649;51.836;8.330;2022-08-01T16:43:32;2.70;;;1.67;;
30966;SDS011;17649;51.836;8.330;2022-08-01T16:46:34;4.30;;;2.17;;
30966;SDS011;17649;51.836;8.330;2022-08-01T16:49:37;7.32;;;2.65;;
30966;SDS011;17649;51.836;8.330;2022-08-01T16:52:41;3.67;;;2.15;;
30966;SDS011;17649;51.836;8.330;2022-08-01T16:55:44;8.18;;;2.50;;
30966;SDS011;17649;51.836;8.330;2022-08-01T16:58:50;6.75;;;2.10;;
30966;SDS011;17649;51.836;8.330;2022-08-01T17:01:52;3.80;;;2.10;;
30966;SDS011;17649;51.836;8.330;2022-08-01T17:05:00;4.78;;;1.85;;
30966;SDS011;17649;51.836;8.330;2022-08-01T17:08:01;16.77;;;3.58;;
30966;SDS011;17649;51.836;8.330;2022-08-01T17:11:08;6.85;;;2.22;;
30966;SDS011;17649;51.836;8.330;2022-08-01T17:14:09;7.97;;;2.47;;
30966;SDS011;17649;51.836;8.330;2022-08-01T17:17:12;5.60;;;2.60;;
30966;SDS011;17649;51.836;8.330;2022-08-01T17:20:12;8.33;;;2.77;;
30966;SDS011;17649;51.836;8.330;2022-08-01T17:23:13;5.03;;;2.13;;
30966;SDS011;17649;51.836;8.330;2022-08-01T17:26:14;4.32;;;2.22;;
30966;SDS011;17649;51.836;8.330;2022-08-01T17:29:14;4.85;;;3.20;;
30966;SDS011;17649;51.836;8.330;2022-08-01T17:32:16;3.70;;;2.22;;
30966;SDS011;17649;51.836;8.330;2022-08-01T17:38:19;4.05;;;3.00;;
30966;SDS011;17649;51.836;8.330;2022-08-01T17:41:22;7.05;;;2.63;;
30966;SDS011;17649;51.836;8.330;2022-08-01T17:44:27;5.68;;;2.65;;
30966;SDS011;17649;51.836;8.330;2022-08-01T17:47:29;4.57;;;2.75;;
30966;SDS011;17649;51.836;8.330;2022-08-01T17:50:31;4.40;;;3.00;;
30966;SDS011;17649;51.836;8.330;2022-08-01T17:53:32;4.20;;;2.78;;
30966;SDS011;17649;51.836;8.330;2022-08-01T17:56:44;11.27;;;5.20;;
30966;SDS011;17649;51.836;8.330;2022-08-01T17:59:56;10.30;;;6.20;;
30966;SDS011;17649;51.836;8.330;2022-08-01T18:03:01;9.18;;;4.72;;
30966;SDS011;17649;51.836;8.330;2022-08-01T18:09:13;5.05;;;3.20;;
30966;SDS011;17649;51.836;8.330;2022-08-01T18:12:14;4.57;;;3.22;;
30966;SDS011;17649;51.836;8.330;2022-08-01T18:18:18;7.30;;;3.25;;
30966;SDS011;17649;51.836;8.330;2022-08-01T18:21:20;5.90;;;3.72;;
30966;SDS011;17649;51.836;8.330;2022-08-01T18:27:25;4.50;;;3.53;;
30966;SDS011;17649;51.836;8.330;2022-08-01T18:30:26;6.70;;;3.93;;
30966;SDS011;17649;51.836;8.330;2022-08-01T18:33:26;6.40;;;3.63;;
30966;SDS011;17649;51.836;8.330;2022-08-01T18:36:27;5.63;;;3.33;;
30966;SDS011;17649;51.836;8.330;2022-08-01T18:39:27;5.10;;;3.70;;
30966;SDS011;17649;51.836;8.330;2022-08-01T18:42:32;7.00;;;3.80;;
30966;SDS011;17649;51.836;8.330;2022-08-01T18:45:32;6.55;;;3.47;;
30966;SDS011;17649;51.836;8.330;2022-08-01T18:48:34;9.60;;;4.25;;
30966;SDS011;17649;51.836;8.330;2022-08-01T18:51:36;7.60;;;3.47;;
30966;SDS011;17649;51.836;8.330;2022-08-01T18:54:36;6.82;;;3.47;;
30966;SDS011;17649;51.836;8.330;2022-08-01T18:57:37;5.40;;;3.58;;
30966;SDS011;17649;51.836;8.330;2022-08-01T19:00:39;6.72;;;4.30;;
30966;SDS011;17649;51.836;8.330;2022-08-01T19:03:41;8.20;;;4.35;;
30966;SDS011;17649;51.836;8.330;2022-08-01T19:06:46;6.20;;;4.28;;
30966;SDS011;17649;51.836;8.330;2022-08-01T19:09:47;6.93;;;4.95;;
30966;SDS011;17649;51.836;8.330;2022-08-01T19:12:47;11.52;;;4.78;;
30966;SDS011;17649;51.836;8.330;2022-08-01T19:15:50;10.32;;;4.78;;
30966;SDS011;17649;51.836;8.330;2022-08-01T19:18:51;10.27;;;4.32;;
30966;SDS011;17649;51.836;8.330;2022-08-01T19:21:53;10.77;;;5.32;;
30966;SDS011;17649;51.836;8.330;2022-08-01T19:24:54;8.63;;;5.35;;
30966;SDS011;17649;51.836;8.330;2022-08-01T19:27:58;10.98;;;6.10;;
30966;SDS011;17649;51.836;8.330;2022-08-01T19:31:00;9.88;;;5.88;;
30966;SDS011;17649;51.836;8.330;2022-08-01T19:34:02;10.52;;;5.78;;
30966;SDS011;17649;51.836;8.330;2022-08-01T19:37:06;23.60;;;7.82;;
30966;SDS011;17649;51.836;8.330;2022-08-01T19:40:11;11.05;;;5.78;;
30966;SDS011;17649;51.836;8.330;2022-08-01T19:43:14;9.65;;;5.55;;
30966;SDS011;17649;51.836;8.330;2022-08-01T19:46:19;12.02;;;5.70;;
30966;SDS011;17649;51.836;8.330;2022-08-01T19:52:24;6.93;;;5.32;;
30966;SDS011;17649;51.836;8.330;2022-08-01T19:55:39;13.93;;;6.63;;
30966;SDS011;17649;51.836;8.330;2022-08-01T19:58:43;10.77;;;7.00;;
30966;SDS011;17649;51.836;8.330;2022-08-01T20:01:50;11.63;;;5.20;;
30966;SDS011;17649;51.836;8.330;2022-08-01T20:04:54;25.60;;;11.55;;
30966;SDS011;17649;51.836;8.330;2022-08-01T20:07:54;10.70;;;7.93;;
30966;SDS011;17649;51.836;8.330;2022-08-01T20:10:56;13.00;;;7.18;;
30966;SDS011;17649;51.836;8.330;2022-08-01T20:13:57;10.55;;;6.93;;
30966;SDS011;17649;51.836;8.330;2022-08-01T20:16:59;15.48;;;7.57;;
30966;SDS011;17649;51.836;8.330;2022-08-01T20:19:59;9.23;;;6.82;;
30966;SDS011;17649;51.836;8.330;2022-08-01T20:23:00;10.30;;;7.53;;
30966;SDS011;17649;51.836;8.330;2022-08-01T20:26:13;9.43;;;6.63;;
30966;SDS011;17649;51.836;8.330;2022-08-01T20:29:17;13.30;;;7.20;;
30966;SDS011;17649;51.836;8.330;2022-08-01T20:32:22;12.50;;;7.50;;
30966;SDS011;17649;51.836;8.330;2022-08-01T20:35:27;12.60;;;7.97;;
30966;SDS011;17649;51.836;8.330;2022-08-01T20:38:27;14.32;;;7.40;;
30966;SDS011;17649;51.836;8.330;2022-08-01T20:41:28;14.38;;;7.55;;
30966;SDS011;17649;51.836;8.330;2022-08-01T20:44:28;12.10;;;7.90;;
30966;SDS011;17649;51.836;8.330;2022-08-01T20:47:30;16.08;;;7.03;;
30966;SDS011;17649;51.836;8.330;2022-08-01T20:50:34;10.70;;;7.40;;
30966;SDS011;17649;51.836;8.330;2022-08-01T20:53:53;12.65;;;7.70;;
30966;SDS011;17649;51.836;8.330;2022-08-01T20:56:58;14.47;;;8.13;;
30966;SDS011;17649;51.836;8.330;2022-08-01T21:00:04;10.63;;;7.65;;
30966;SDS011;17649;51.836;8.330;2022-08-01T21:03:06;13.73;;;8.60;;
30966;SDS011;17649;51.836;8.330;2022-08-01T21:06:13;14.05;;;8.23;;
30966;SDS011;17649;51.836;8.330;2022-08-01T21:09:24;12.55;;;8.23;;